This is the latest recevied weather packets stored in our database for station/object M0SDM. If no packets are shown the sender has not sent any weather packets the latest 10 day(s).
| Time | Temp. | Humidity | Pressure | Rain* | Wind** | Luminosity | Snow |
|---|---|---|---|---|---|---|---|
| 1777677921 | 12.78° C | 92% | 1016.8 hPa | 0 mm | - | - | - |
| 1777677021 | 12.78° C | 91% | 1016.9 hPa | 0 mm | - | - | - |
| 1777676121 | 12.78° C | 91% | 1016.7 hPa | 0 mm | - | - | - |
| 1777675221 | 12.78° C | 91% | 1016.7 hPa | 0 mm | - | - | - |
| 1777674322 | 12.78° C | 91% | 1016.4 hPa | 0 mm | - | - | - |
| 1777673421 | 13.33° C | 90% | 1016.6 hPa | 0 mm | - | - | - |
| 1777672521 | 13.33° C | 90% | 1016.4 hPa | 0 mm | - | - | - |
| 1777671621 | 13.33° C | 88% | 1016.5 hPa | 0 mm | - | - | - |
| 1777670721 | 13.89° C | 86% | 1016.4 hPa | 0 mm | - | - | - |
| 1777669821 | 14.44° C | 84% | 1016.4 hPa | 0 mm | - | - | - |
| 1777668921 | 14.44° C | 81% | 1016.2 hPa | 0 mm | - | - | - |
| 1777668255 | 15° C | 79% | 1016.3 hPa | 0 mm | - | - | - |
| 1777668021 | 15° C | 79% | 1016.3 hPa | 0 mm | - | - | - |
| 1777667121 | 15° C | 77% | 1016.2 hPa | 0 mm | - | - | - |
| 1777666837 | 15.56° C | 75% | 1015.8 hPa | 0 mm | - | - | - |
| 1777666221 | 15.56° C | 75% | 1015.8 hPa | 0 mm | - | - | - |
| 1777665321 | 15.56° C | 73% | 1016 hPa | 0 mm | - | - | - |
| 1777664421 | 16.11° C | 71% | 1015.9 hPa | 0 mm | - | - | - |
| 1777663521 | 16.11° C | 70% | 1015.6 hPa | 0 mm | - | - | - |
| 1777662621 | 16.67° C | 69% | 1015.4 hPa | 0 mm | - | - | - |
| 1777661721 | 17.78° C | 68% | 1015.1 hPa | 0 mm | - | - | - |
| 1777660821 | 21.11° C | 53% | 1014.9 hPa | 0 mm | - | - | - |
| 1777659921 | 21.67° C | 52% | 1014.5 hPa | 0 mm | - | - | - |
| 1777659021 | 22.78° C | 48% | 1014.3 hPa | 0 mm | - | - | - |
| 1777658121 | 22.78° C | 48% | 1014.1 hPa | 0 mm | - | - | - |
* Rain latest hour (hover to see other rain measurements)
** Current wind speed in m/s (hover to see current wind gust speed)